My Meet Scores
Ella Khongkham, Patti Dunne's School Of Gymnastics - MyMeetScores.com
Top100 | Top Teams | Upcoming Meets | Completed Meets | Latest | Add Scores | Help| Support | Bookmark and Share

Ella Khongkham, Patti Dunne's School Of Gymnastics
Personal Bests
LevelVault BarsBeamFloorAA
38.8008.700 8.7508.55034.800
48.9009.450 9.0508.75035.250
59.2009.175 8.8508.90035.825
Meet Scores
Date Meet Team Session Level Division Vault Bars Beam Floor AA
2018-02-16 Chelsea Piers Winter Challenge Patti Dunne's School Of Gymnastics C-8 5 Sr 8.800 15T 9.050 4 8.125 13T 8.550 15 34.525 11
2018-02-09 Team Challenge 2018 Patti Dunne's School Of Gymnastics 07B 5 Sr B 9.200 10 9.175 3 8.850 8 8.600 14 35.825 9
2018-02-03 Level 4 & 5 States Patti Dunne's School Of Gymnastics 6 5 12 A 8.950 27T 8.875 6 8.250 34T 8.500 34T 34.575 19
2018-01-26 2018 American Invitational Patti Dunne's School Of Gymnastics 7B 5 Middle 9.000 2 8.750 1 7.200 7 8.900 5 33.850 6
2018-01-19 Kinetic Kids Invitational Patti Dunne's School Of Gymnastics 7 5 Older 8.800 5 8.700 5 7.650 8 8.150 10 33.300 8
2018-01-12 DGS Invitational Patti Dunne's School Of Gymnastics 6A 5 11 yrs. 8.850 14 8.650 7 6.850 18 8.375 13 32.725 13
2017-11-30 Rhode Island Invitational Patti Dunne's School Of Gymnastics SU1 5 Junior 8.250 11 7.900 6 7.600 11 8.200 10 31.950 10
2017-02-18 Chelsea Piers Winter Challenge Patti Dunne's School Of Gymnastics C-6 4 SR 8.450 7 8.800 4 8.650 10 8.725 9 34.625 8
2017-02-10 Team Challenge 2017 Patti Dunne's School Of Gymnastics 02B 4 Senior 8.850 5 9.225 1 8.750 8T 8.425 8 35.250 5
2017-02-04 2017 Connecticut Level 4 & 5 State Meets Patti Dunne's School Of Gymnastics 3 4 11 A 8.900 3T 9.050 3 8.700 7* 8.575 9 35.225 3T
2017-01-27 24th Annual American Invitational Patti Dunne's School Of Gymnastics 5B 4 Senior 8.200 15 9.300 7 9.050 13 8.350 15 34.900 13
2017-01-20 2017 Ultimate Beach Classic Patti Dunne's School Of Gymnastics 2 4 Senior 8.550 5 9.175 2 8.025 6 8.625 10 34.375 5
2017-01-13 Northeast Invitational Patti Dunne's School Of Gymnastics 5 4 10 yrs. 8.600 8 9.050 2T 8.750 5T 8.750 7 35.150 5
2016-12-02 Rhode Island Invitational Patti Dunne's School Of Gymnastics SF2 4 Senior 8.050 9 8.650 4 8.550 8 8.650 7 33.900 7
2016-11-05 2016 Connecticut Judges Cup Patti Dunne's School Of Gymnastics 5 4 AllAges 8.700 6 9.100 9T 9.025 17 8.250 20T 35.075 10
2016-02-20 2016 Connecticut Level 4 And 5 State Meets Patti Dunne's School Of Gymnastics 4 4 10 JR A 8.500 13T 8.500 13T 7.750 18 8.300 18 33.050 17
2016-02-13 Chelsea Piers Winter Challenge Patti Dunne's School Of Gymnastics F8 4 JR A 7.400 18T 9.450 2 8.950 13 8.100 16 33.900 12
2016-01-22 Sand Dollar/Whitlow Invitational Patti Dunne's School Of Gymnastics A07 4 Jr B 7.925 17 8.400 17 7.325 21 7.625 21 31.275 19
2016-01-15 DGS Invitational Patti Dunne's School Of Gymnastics B10 4 9 yrs. 8.150 10 9.300 3T 7.450 13 8.500 13 33.400 13
2015-12-04 Rhode Island Invitational Patti Dunne's School Of Gymnastics SF3 4 Junior 7.950 10 8.500 5 7.875 13 8.475 9T 32.800 11
2015-11-21 TPI Pilgrim 2015 Patti Dunne's School Of Gymnastics 1B 4 Junior 8.450 7T 7.750 11 8.325 11 7.725 14 32.250 13
2015-02-13 Team Challege 2015 Patti Dunne's School Of Gymnastics B1 3 Senior 8.800 9T 8.700 13 8.750 18 8.550 15T 34.800 13
2015-01-22 Sand Dollar/ Whitlow Invitational Patti Dunne's School Of Gymnastics A04 3 Jr A 8.450 15 8.350 14 8.750 6T 8.400 14 33.950 13
2014-03-29 2014 Connecticut Level 3, 6 States Patti Dunne's School Of Gymnastics 1 3 All Ages 8.800 79T 7.150 88 6.400 93 8.225 87 30.575 91
2014-01-17 DGS Invitational Patti Dunne's School Of Gymnastics B6 3 7 yrs. 8.400 8 6.000 11 6.700 11 7.400 11 28.500 11
2013-12-06 Rhode Island Invitational Patti Dunne's School Of Gymnastics sf2 3 Intermed 7.925 9 6.650 8 6.150 9 7.325 7 28.050 9

www.lazysuits.com